Flight Track Log - Related Links

Times and Time Zones

All times are in EDT time to prevent confusion due to time zone crossing. See the UAL3821 flight status page for this flight to view local times or setup timezone preferences in your user account.

Time Position Orientation Groundspeed Altitude Reporting Facility
EDT Latitude Longitude Course Direction KTS MPH feet Rate Location/Type
Mon 10:41:23 AM 40.6667 -74.1833 270° West 156 180 1,600  Level New York TRACON
Mon 10:42:23 AM 40.6167 -74.2167 207° Southwest 197 227 3,300 2,100 Climbing New York TRACON
Mon 10:43:23 AM 40.6333 -74.2833 288° West 275 316 5,800 2,400 Climbing New York TRACON
Mon 10:44:00 AM 40.9862 -74.5175 319° Northwest  Level FlightAware Approximate
Mon 10:44:23 AM 40.7000 -74.3167 339° North 265 305 8,100  Level New York TRACON
Mon 10:45:00 AM 41.0597 -74.6099 316° Northwest  Level FlightAware Approximate
Mon 10:45:23 AM 40.7667 -74.3500 339° North 278 320 10,100  Level New York TRACON
Mon 10:46:00 AM 41.1333 -74.6903 270° West  Level FlightAware Approximate
Mon 10:46:53 AM 40.8919 -74.3753 351° North 296 341 13,200  Level New York Center
Mon 10:47:23 AM 40.9333 -74.3667 North 297 342 14,100 1,180 Climbing New York TRACON
Mon 10:47:54 AM 40.9811 -74.3908 339° North 309 356 14,400 607 Climbing New York Center
Mon 10:48:52 AM 41.0283 -74.4814 305° West 331 381 15,000 559 Climbing New York Center
Mon 10:49:52 AM 41.0853 -74.5892 305° West 363 418 15,500 595 Climbing New York Center
Mon 10:50:53 AM 41.1378 -74.7025 302° West 369 425 16,200 893 Climbing New York Center
Mon 10:51:53 AM 41.1922 -74.8186 302° West 369 425 17,300 1,091 Climbing New York Center
Mon 10:52:54 AM 41.2422 -74.9347 300° West 369 425 18,400 1,109 Climbing New York Center
Mon 10:53:52 AM 41.2922 -75.0564 299° West 369 425 19,500 1,109 Climbing New York Center
Mon 10:54:53 AM 41.3439 -75.1786 299° West 374 430 20,600 1,041 Climbing New York Center
Mon 10:55:53 AM 41.3978 -75.2983 301° West 374 430 21,600 1,140 Climbing New York Center
Mon 10:56:54 AM 41.4492 -75.4236 299° West 379 436 22,900 1,271 Climbing New York Center
Mon 10:57:51 AM 41.4942 -75.5458 296° West 379 436 24,100 1,068 Climbing New York Center
Mon 10:58:52 AM 41.5289 -75.6672 291° West 379 436 25,000 1,140 Climbing New York Center
Mon 10:59:52 AM 41.5686 -75.8089 291° West 379 436 26,400 1,200 Climbing New York Center
Mon 11:00:52 AM 41.6050 -75.9336 283° West 379 436 27,400 992 Climbing New York Center
Mon 11:01:00 AM 41.6059 -75.9517 283° West  Level FlightAware Approximate
Mon 11:01:53 AM 41.6428 -76.0672 291° West 379 436 28,400  Level New York Center
Mon 11:02:54 AM 41.6786 -76.1950 291° West 379 436 29,500 1,210 Climbing New York Center
Mon 11:03:52 AM 41.7144 -76.3228 291° West 379 436 30,800 1,179 Climbing New York Center
Mon 11:04:51 AM 41.7481 -76.4481 290° West 374 430 31,800 950 Climbing New York Center
Mon 11:05:52 AM 41.7819 -76.5650 291° West 374 430 32,700 893 Climbing New York Center
Mon 11:06:52 AM 41.8172 -76.6961 290° West 374 430 33,600 970 Climbing New York Center
Mon 11:09:10 AM 41.9044 -77.0089 291° West 377 434 35,900 731 Climbing Cleveland Center
Mon 11:10:09 AM 41.9397 -77.1439 289° West 377 434 36,000 50 Climbing Cleveland Center
Mon 11:11:09 AM 41.9792 -77.2814 291° West 388 447 36,000  Level Cleveland Center
Mon 11:12:09 AM 42.0167 -77.4247 289° West 400 460 36,000  Level Cleveland Center
Mon 11:13:10 AM 42.0539 -77.5711 289° West 405 466 36,000  Level Cleveland Center
Mon 11:14:09 AM 42.0953 -77.7203 291° West 418 481 36,000  Level Cleveland Center
Mon 11:15:10 AM 42.1322 -77.8672 289° West 418 481 36,000  Level Cleveland Center
Mon 11:16:09 AM 42.1731 -78.0167 290° West 418 481 36,000  Level Cleveland Center
Mon 11:17:09 AM 42.2097 -78.1639 289° West 418 481 36,000  Level Cleveland Center
Mon 11:18:10 AM 42.2481 -78.3056 290° West 413 475 36,000  Level Cleveland Center
Mon 11:19:10 AM 42.2864 -78.4528 289° West 413 475 36,000  Level Cleveland Center
Mon 11:20:10 AM 42.3222 -78.5978 289° West 413 475 36,000  Level Cleveland Center
Mon 11:21:10 AM 42.3600 -78.7428 289° West 413 475 36,000  Level Cleveland Center
Mon 11:22:09 AM 42.3956 -78.8850 289° West 413 475 36,000  Level Cleveland Center
Mon 11:23:09 AM 42.4267 -79.0164 288° West 413 475 36,000  Level Cleveland Center
Mon 11:24:09 AM 42.4683 -79.1786 289° West 413 475 36,000  Level Cleveland Center
Mon 11:25:10 AM 42.4950 -79.3272 284° West 413 475 36,000  Level Cleveland Center
Mon 11:26:09 AM 42.5028 -79.4764 274° West 408 470 36,000  Level Cleveland Center
Mon 11:27:10 AM 42.5106 -79.6311 274° West 408 470 36,000  Level Cleveland Center
Mon 11:28:09 AM 42.5178 -79.7861 274° West 408 470 36,000  Level Cleveland Center
Mon 11:29:09 AM 42.5253 -79.9436 274° West 413 475 36,000  Level Cleveland Center
Mon 11:30:10 AM 42.5281 -80.1014 271° West 418 481 36,000  Level Cleveland Center
Mon 11:31:09 AM 42.5369 -80.2592 274° West 418 481 36,000  Level Cleveland Center
Mon 11:32:09 AM 42.5414 -80.4142 272° West 418 481 36,000  Level Cleveland Center
Mon 11:33:10 AM 42.5478 -80.5606 273° West 409 471 36,000  Level Cleveland Center
Mon 11:34:10 AM 42.5539 -80.7128 273° West 404 465 36,000  Level Cleveland Center
Mon 11:35:09 AM 42.5619 -80.8708 274° West 410 472 36,000  Level Cleveland Center
Mon 11:36:10 AM 42.5656 -81.0144 272° West 410 472 36,000  Level Cleveland Center
Mon 11:37:09 AM 42.5714 -81.1667 273° West 402 463 36,000  Level Cleveland Center
Mon 11:38:09 AM 42.5767 -81.3192 273° West 403 464 36,000  Level Cleveland Center
Mon 11:39:09 AM 42.5819 -81.4517 273° West 403 464 36,000  Level Cleveland Center
Mon 11:40:10 AM 42.6078 -81.6017 283° West 403 464 36,000  Level Cleveland Center
Mon 11:41:09 AM 42.6336 -81.7431 284° West 403 464 36,000  Level Cleveland Center
Mon 11:42:10 AM 42.6592 -81.8875 284° West 398 458 36,000  Level Cleveland Center
Mon 11:43:09 AM 42.6844 -82.0350 283° West 393 452 36,000  Level Cleveland Center
Mon 11:44:09 AM 42.7097 -82.1797 283° West 393 452 36,000  Level Cleveland Center
Mon 11:45:10 AM 42.7347 -82.3272 283° West 393 452 36,000  Level Cleveland Center
Mon 11:46:10 AM 42.7594 -82.4694 283° West 393 452 36,000  Level Cleveland Center
Mon 11:47:09 AM 42.7842 -82.6172 283° West 393 452 36,000  Level Cleveland Center
Mon 11:48:09 AM 42.8064 -82.7650 282° West 393 452 36,000  Level Cleveland Center
Mon 11:49:09 AM 42.8328 -82.9075 284° West 393 452 36,000  Level Cleveland Center
Mon 11:50:09 AM 42.8547 -83.0528 282° West 393 452 36,000  Level Cleveland Center
Mon 11:51:09 AM 42.8786 -83.1983 283° West 393 452 36,000  Level Cleveland Center
Mon 11:52:09 AM 42.9022 -83.3439 283° West 398 458 36,000  Level Cleveland Center
Mon 11:53:09 AM 42.9258 -83.4925 282° West 398 458 36,000  Level Cleveland Center
Mon 11:54:09 AM 42.9492 -83.6381 282° West 393 452 36,000  Level Cleveland Center
Mon 11:55:09 AM 42.9700 -83.7867 281° West 398 458 36,000  Level Cleveland Center
Mon 11:56:09 AM 42.9828 -83.9322 277° West 398 458 36,000  Level Cleveland Center
Mon 11:57:09 AM 42.9969 -84.0833 277° West 398 458 36,000  Level Cleveland Center
Mon 11:59:40 AM 43.0358 -84.4758 278° West 402 463 36,000  Level Chicago Center
Mon 12:00:42 PM 43.0497 -84.6258 277° West 400 460 36,000  Level Chicago Center
Mon 12:01:44 PM 43.0636 -84.7747 277° West 398 458 36,000  Level Chicago Center
Mon 12:02:46 PM 43.0761 -84.9206 277° West 390 449 36,000  Level Chicago Center
Mon 12:03:47 PM 43.0889 -85.0650 277° West 385 443 36,000  Level Chicago Center
Mon 12:04:49 PM 43.1017 -85.2069 277° West 379 436 36,000  Level Chicago Center
Mon 12:05:51 PM 43.1131 -85.3497 276° West 380 437 36,000  Level Chicago Center
Mon 12:06:53 PM 43.1214 -85.5206 274° West 377 434 36,000  Level Chicago Center
Mon 12:07:55 PM 43.1256 -85.6622 272° West 377 434 36,000  Level Chicago Center
Mon 12:08:57 PM 43.1297 -85.8008 272° West 370 426 36,000 -293 Level Chicago Center
Mon 12:09:58 PM 43.1325 -85.9403 272° West 374 430 35,400 -2,195 Descending Chicago Center
Mon 12:11:00 PM 43.1358 -86.1050 272° West 374 430 31,500 -3,629 Descending Chicago Center
Mon 12:12:02 PM 43.1392 -86.2511 272° West 387 445 27,900 -3,726 Descending Chicago Center
Mon 12:13:04 PM 43.1411 -86.3983 271° West 390 449 23,800 -3,919 Descending Chicago Center
Mon 12:14:06 PM 43.1450 -86.5492 272° West 396 456 19,800 -3,561 Descending Chicago Center
Mon 12:15:07 PM 43.1472 -86.6950 271° West 378 435 16,500 -2,488 Descending Chicago Center
Mon 12:16:09 PM 43.1486 -86.8261 271° West 333 383 14,700 -1,452 Descending Chicago Center
Mon 12:17:11 PM 43.1514 -86.9647 272° West 306 352 13,500 -1,065 Descending Chicago Center
Mon 12:18:13 PM 43.1464 -87.0947 267° West 340 391 12,500 -1,355 Descending Chicago Center
Mon 12:19:15 PM 43.1072 -87.2083 245° Southwest 330 380 10,700 -1,306 Descending Chicago Center
Mon 12:20:17 PM 43.0839 -87.3106 253° West 296 341 9,800 -1,258 Descending Chicago Center
Mon 12:21:19 PM 43.0611 -87.4128 253° West 261 300 8,100 -1,548 Descending Chicago Center
Mon 12:22:21 PM 43.0375 -87.5061 251° West 258 297 6,600 -1,452 Descending Chicago Center
Mon 12:23:23 PM 43.0150 -87.6017 252° West 262 302 5,100 -1,512 Descending Chicago Center
Mon 12:24:24 PM 42.9919 -87.6950 251° West 259 298 3,500 -1,574 Descending Chicago Center

Login

Don't have an account? Register now (free) for customized features, flight alerts, and more!